sensor_id;sensor_type;location;lat;lon;timestamp;pressure;altitude;pressure_sealevel;temperature;humidity
51239;BME280;38154;47.548;18.828;2022-11-15T00:02:10;99206.66;;;2.27;100.00
51239;BME280;38154;47.548;18.828;2022-11-15T00:04:35;99213.47;;;2.26;100.00
51239;BME280;38154;47.548;18.828;2022-11-15T00:07:01;99218.09;;;2.33;100.00
51239;BME280;38154;47.548;18.828;2022-11-15T00:09:27;99216.03;;;2.25;100.00
51239;BME280;38154;47.548;18.828;2022-11-15T00:11:53;99216.81;;;2.23;100.00
51239;BME280;38154;47.548;18.828;2022-11-15T00:14:19;99228.50;;;2.15;100.00
51239;BME280;38154;47.548;18.828;2022-11-15T00:16:45;99239.59;;;2.14;100.00
51239;BME280;38154;47.548;18.828;2022-11-15T00:19:10;99227.22;;;2.06;100.00
51239;BME280;38154;47.548;18.828;2022-11-15T00:21:36;99218.94;;;2.13;100.00
51239;BME280;38154;47.548;18.828;2022-11-15T00:24:02;99227.62;;;2.36;100.00
51239;BME280;38154;47.548;18.828;2022-11-15T00:26:28;99220.28;;;2.24;100.00
51239;BME280;38154;47.548;18.828;2022-11-15T00:28:54;99219.84;;;2.13;100.00
51239;BME280;38154;47.548;18.828;2022-11-15T00:31:20;99217.78;;;2.06;100.00
51239;BME280;38154;47.548;18.828;2022-11-15T00:33:46;99220.34;;;2.04;100.00
51239;BME280;38154;47.548;18.828;2022-11-15T00:36:12;99209.22;;;2.06;100.00
51239;BME280;38154;47.548;18.828;2022-11-15T00:38:39;99211.59;;;2.01;100.00
51239;BME280;38154;47.548;18.828;2022-11-15T00:41:05;99213.00;;;1.94;100.00
51239;BME280;38154;47.548;18.828;2022-11-15T00:43:32;99201.78;;;1.92;100.00
51239;BME280;38154;47.548;18.828;2022-11-15T00:45:58;99198.41;;;1.93;100.00
51239;BME280;38154;47.548;18.828;2022-11-15T00:48:24;99194.72;;;2.08;100.00
51239;BME280;38154;47.548;18.828;2022-11-15T00:50:49;99197.03;;;2.22;100.00
51239;BME280;38154;47.548;18.828;2022-11-15T00:53:16;99200.81;;;2.31;100.00
51239;BME280;38154;47.548;18.828;2022-11-15T00:55:42;99199.31;;;2.36;100.00
51239;BME280;38154;47.548;18.828;2022-11-15T00:58:08;99200.94;;;2.34;100.00
51239;BME280;38154;47.548;18.828;2022-11-15T01:00:34;99197.44;;;2.32;100.00
51239;BME280;38154;47.548;18.828;2022-11-15T01:03:00;99191.78;;;2.40;100.00
51239;BME280;38154;47.548;18.828;2022-11-15T01:05:27;99188.94;;;2.55;100.00
51239;BME280;38154;47.548;18.828;2022-11-15T01:07:54;99179.53;;;2.56;100.00
51239;BME280;38154;47.548;18.828;2022-11-15T01:10:22;99173.69;;;2.60;100.00
51239;BME280;38154;47.548;18.828;2022-11-15T01:12:48;99171.91;;;2.80;100.00
51239;BME280;38154;47.548;18.828;2022-11-15T01:15:15;99168.59;;;2.84;100.00
51239;BME280;38154;47.548;18.828;2022-11-15T01:17:40;99172.09;;;2.86;100.00
51239;BME280;38154;47.548;18.828;2022-11-15T01:20:07;99165.56;;;2.94;100.00
51239;BME280;38154;47.548;18.828;2022-11-15T01:22:33;99172.28;;;2.91;100.00
51239;BME280;38154;47.548;18.828;2022-11-15T01:24:59;99160.22;;;2.90;100.00
51239;BME280;38154;47.548;18.828;2022-11-15T01:27:25;99161.06;;;2.89;100.00
51239;BME280;38154;47.548;18.828;2022-11-15T01:29:50;99163.91;;;2.96;100.00
51239;BME280;38154;47.548;18.828;2022-11-15T01:32:17;99160.41;;;2.94;100.00
51239;BME280;38154;47.548;18.828;2022-11-15T01:34:43;99167.25;;;2.94;100.00
51239;BME280;38154;47.548;18.828;2022-11-15T01:37:09;99155.31;;;2.96;100.00
51239;BME280;38154;47.548;18.828;2022-11-15T01:39:35;99169.19;;;3.00;100.00
51239;BME280;38154;47.548;18.828;2022-11-15T01:42:01;99150.72;;;3.11;100.00
51239;BME280;38154;47.548;18.828;2022-11-15T01:47:02;99155.13;;;3.14;100.00
51239;BME280;38154;47.548;18.828;2022-11-15T01:49:30;99151.06;;;3.21;100.00
51239;BME280;38154;47.548;18.828;2022-11-15T01:51:58;99153.97;;;3.30;100.00
51239;BME280;38154;47.548;18.828;2022-11-15T01:54:26;99144.62;;;3.32;100.00
51239;BME280;38154;47.548;18.828;2022-11-15T01:56:59;99150.91;;;3.40;100.00
51239;BME280;38154;47.548;18.828;2022-11-15T01:59:27;99150.09;;;3.41;100.00
51239;BME280;38154;47.548;18.828;2022-11-15T02:01:53;99157.00;;;3.42;100.00
51239;BME280;38154;47.548;18.828;2022-11-15T02:04:31;99147.91;;;3.52;100.00
51239;BME280;38154;47.548;18.828;2022-11-15T02:06:58;99149.03;;;3.60;100.00
51239;BME280;38154;47.548;18.828;2022-11-15T02:09:25;99138.69;;;3.59;100.00
51239;BME280;38154;47.548;18.828;2022-11-15T02:11:53;99135.94;;;3.54;100.00
51239;BME280;38154;47.548;18.828;2022-11-15T02:14:20;99137.63;;;3.53;100.00
51239;BME280;38154;47.548;18.828;2022-11-15T02:32:46;99122.97;;;3.27;100.00
51239;BME280;38154;47.548;18.828;2022-11-15T02:35:28;99113.28;;;3.21;100.00
51239;BME280;38154;47.548;18.828;2022-11-15T02:38:06;99115.56;;;3.12;100.00
51239;BME280;38154;47.548;18.828;2022-11-15T02:43:13;99116.34;;;2.87;100.00
51239;BME280;38154;47.548;18.828;2022-11-15T02:46:08;99104.28;;;2.86;100.00
51239;BME280;38154;47.548;18.828;2022-11-15T02:48:36;99103.91;;;2.75;100.00
51239;BME280;38154;47.548;18.828;2022-11-15T02:51:02;99103.78;;;2.72;100.00
51239;BME280;38154;47.548;18.828;2022-11-15T02:53:28;99105.44;;;2.71;100.00
51239;BME280;38154;47.548;18.828;2022-11-15T02:55:56;99105.50;;;2.73;100.00
51239;BME280;38154;47.548;18.828;2022-11-15T02:58:48;99097.34;;;2.60;100.00
51239;BME280;38154;47.548;18.828;2022-11-15T03:07:00;99105.28;;;2.44;100.00
51239;BME280;38154;47.548;18.828;2022-11-15T03:09:35;99103.47;;;2.41;100.00
51239;BME280;38154;47.548;18.828;2022-11-15T03:12:19;99092.81;;;2.32;100.00
51239;BME280;38154;47.548;18.828;2022-11-15T03:14:54;99092.81;;;2.32;100.00
51239;BME280;38154;47.548;18.828;2022-11-15T03:17:32;99085.34;;;2.38;100.00
51239;BME280;38154;47.548;18.828;2022-11-15T03:20:04;99079.78;;;2.50;100.00
51239;BME280;38154;47.548;18.828;2022-11-15T03:22:35;99076.63;;;2.80;100.00
51239;BME280;38154;47.548;18.828;2022-11-15T03:25:06;99078.53;;;3.10;100.00
51239;BME280;38154;47.548;18.828;2022-11-15T03:27:38;99076.84;;;3.10;100.00
51239;BME280;38154;47.548;18.828;2022-11-15T03:30:07;99067.12;;;3.03;100.00
51239;BME280;38154;47.548;18.828;2022-11-15T03:33:00;99073.22;;;3.05;100.00
51239;BME280;38154;47.548;18.828;2022-11-15T03:35:27;99063.28;;;3.16;100.00
51239;BME280;38154;47.548;18.828;2022-11-15T03:38:00;99050.63;;;3.22;100.00
51239;BME280;38154;47.548;18.828;2022-11-15T03:40:35;99058.66;;;3.31;100.00
51239;BME280;38154;47.548;18.828;2022-11-15T03:43:30;99058.28;;;3.45;100.00
51239;BME280;38154;47.548;18.828;2022-11-15T03:46:07;99056.06;;;3.56;100.00
51239;BME280;38154;47.548;18.828;2022-11-15T03:48:43;99048.41;;;3.57;100.00
51239;BME280;38154;47.548;18.828;2022-11-15T03:51:11;99046.84;;;3.62;100.00
51239;BME280;38154;47.548;18.828;2022-11-15T03:53:37;99044.38;;;3.65;100.00
51239;BME280;38154;47.548;18.828;2022-11-15T03:56:03;99045.28;;;3.67;100.00
51239;BME280;38154;47.548;18.828;2022-11-15T03:58:29;99052.06;;;3.64;100.00
51239;BME280;38154;47.548;18.828;2022-11-15T04:00:55;99053.59;;;3.59;100.00
51239;BME280;38154;47.548;18.828;2022-11-15T04:03:21;99048.06;;;3.48;100.00
51239;BME280;38154;47.548;18.828;2022-11-15T04:05:46;99044.19;;;3.35;100.00
51239;BME280;38154;47.548;18.828;2022-11-15T04:08:12;99059.28;;;3.24;100.00
51239;BME280;38154;47.548;18.828;2022-11-15T04:10:38;99052.06;;;3.14;100.00
51239;BME280;38154;47.548;18.828;2022-11-15T04:13:04;99064.41;;;2.99;100.00
51239;BME280;38154;47.548;18.828;2022-11-15T04:15:30;99054.63;;;2.90;100.00
51239;BME280;38154;47.548;18.828;2022-11-15T04:17:57;99055.63;;;2.93;100.00
51239;BME280;38154;47.548;18.828;2022-11-15T04:20:28;99054.75;;;2.93;100.00
51239;BME280;38154;47.548;18.828;2022-11-15T04:23:18;99059.09;;;2.94;100.00
51239;BME280;38154;47.548;18.828;2022-11-15T04:26:14;99057.53;;;2.99;100.00
51239;BME280;38154;47.548;18.828;2022-11-15T04:28:41;99064.41;;;2.99;100.00
51239;BME280;38154;47.548;18.828;2022-11-15T04:31:26;99056.25;;;3.10;100.00
51239;BME280;38154;47.548;18.828;2022-11-15T04:33:52;99074.09;;;3.06;100.00
51239;BME280;38154;47.548;18.828;2022-11-15T04:36:19;99068.72;;;3.00;100.00
51239;BME280;38154;47.548;18.828;2022-11-15T04:39:04;99069.56;;;2.99;100.00
51239;BME280;38154;47.548;18.828;2022-11-15T04:41:30;99055.16;;;3.04;100.00
51239;BME280;38154;47.548;18.828;2022-11-15T04:43:56;99054.47;;;3.09;100.00
51239;BME280;38154;47.548;18.828;2022-11-15T04:46:22;99051.59;;;3.00;100.00
51239;BME280;38154;47.548;18.828;2022-11-15T04:48:49;99059.09;;;2.94;100.00
51239;BME280;38154;47.548;18.828;2022-11-15T04:51:16;99035.22;;;3.00;100.00
51239;BME280;38154;47.548;18.828;2022-11-15T04:53:41;99031.13;;;3.05;100.00
51239;BME280;38154;47.548;18.828;2022-11-15T04:56:07;99033.19;;;3.15;100.00
51239;BME280;38154;47.548;18.828;2022-11-15T04:58:33;99033.53;;;3.24;100.00
51239;BME280;38154;47.548;18.828;2022-11-15T05:01:07;99039.66;;;3.28;100.00
51239;BME280;38154;47.548;18.828;2022-11-15T05:03:33;99030.12;;;3.25;100.00
51239;BME280;38154;47.548;18.828;2022-11-15T05:06:19;99032.50;;;3.19;100.00
51239;BME280;38154;47.548;18.828;2022-11-15T05:08:45;99037.69;;;3.21;100.00
51239;BME280;38154;47.548;18.828;2022-11-15T05:11:11;99038.63;;;3.23;100.00
51239;BME280;38154;47.548;18.828;2022-11-15T05:13:37;99038.31;;;3.39;100.00
51239;BME280;38154;47.548;18.828;2022-11-15T05:16:03;99037.41;;;3.37;100.00
51239;BME280;38154;47.548;18.828;2022-11-15T05:18:28;99034.84;;;3.37;100.00
51239;BME280;38154;47.548;18.828;2022-11-15T05:20:54;99030.59;;;3.39;100.00
51239;BME280;38154;47.548;18.828;2022-11-15T05:23:20;99027.56;;;3.51;100.00
51239;BME280;38154;47.548;18.828;2022-11-15T05:25:46;99031.06;;;3.53;100.00
51239;BME280;38154;47.548;18.828;2022-11-15T05:28:12;99015.59;;;3.53;100.00
51239;BME280;38154;47.548;18.828;2022-11-15T05:30:38;99018.53;;;3.64;100.00
51239;BME280;38154;47.548;18.828;2022-11-15T05:33:04;99018.06;;;3.76;100.00
51239;BME280;38154;47.548;18.828;2022-11-15T05:35:38;99019.84;;;3.78;100.00
51239;BME280;38154;47.548;18.828;2022-11-15T05:38:05;99008.88;;;3.84;100.00
51239;BME280;38154;47.548;18.828;2022-11-15T05:40:32;99007.47;;;3.95;100.00
51239;BME280;38154;47.548;18.828;2022-11-15T05:42:59;99003.44;;;4.03;100.00
51239;BME280;38154;47.548;18.828;2022-11-15T05:45:26;98999.12;;;4.02;100.00
51239;BME280;38154;47.548;18.828;2022-11-15T05:47:54;98990.81;;;4.13;100.00
51239;BME280;38154;47.548;18.828;2022-11-15T05:50:21;98990.78;;;4.11;100.00
51239;BME280;38154;47.548;18.828;2022-11-15T05:52:47;98993.50;;;4.16;100.00
51239;BME280;38154;47.548;18.828;2022-11-15T05:55:14;98991.88;;;4.19;100.00
51239;BME280;38154;47.548;18.828;2022-11-15T05:57:40;99000.50;;;4.20;100.00
51239;BME280;38154;47.548;18.828;2022-11-15T06:00:08;99004.09;;;4.25;100.00
51239;BME280;38154;47.548;18.828;2022-11-15T06:02:34;99004.00;;;4.22;100.00
51239;BME280;38154;47.548;18.828;2022-11-15T06:05:00;99003.19;;;4.23;100.00
51239;BME280;38154;47.548;18.828;2022-11-15T06:07:26;99001.59;;;4.28;100.00
51239;BME280;38154;47.548;18.828;2022-11-15T06:09:52;99008.69;;;4.35;100.00
51239;BME280;38154;47.548;18.828;2022-11-15T06:12:18;99003.44;;;4.61;100.00
51239;BME280;38154;47.548;18.828;2022-11-15T06:14:44;99009.47;;;4.61;100.00
51239;BME280;38154;47.548;18.828;2022-11-15T06:17:09;99003.88;;;4.76;100.00
51239;BME280;38154;47.548;18.828;2022-11-15T06:19:35;99007.53;;;4.85;100.00
51239;BME280;38154;47.548;18.828;2022-11-15T06:22:01;99011.09;;;4.88;100.00
51239;BME280;38154;47.548;18.828;2022-11-15T06:24:27;99013.81;;;4.93;100.00
51239;BME280;38154;47.548;18.828;2022-11-15T06:26:53;99003.34;;;4.88;100.00
51239;BME280;38154;47.548;18.828;2022-11-15T06:29:19;99009.16;;;4.81;100.00
51239;BME280;38154;47.548;18.828;2022-11-15T06:31:45;99006.00;;;4.91;100.00
51239;BME280;38154;47.548;18.828;2022-11-15T06:34:11;99008.19;;;4.77;100.00
51239;BME280;38154;47.548;18.828;2022-11-15T06:36:37;99009.00;;;4.75;100.00
51239;BME280;38154;47.548;18.828;2022-11-15T06:39:04;99007.06;;;4.68;100.00
51239;BME280;38154;47.548;18.828;2022-11-15T06:41:29;99009.66;;;4.68;100.00
51239;BME280;38154;47.548;18.828;2022-11-15T06:43:56;99020.75;;;4.65;100.00
51239;BME280;38154;47.548;18.828;2022-11-15T06:46:22;99024.06;;;4.59;100.00
51239;BME280;38154;47.548;18.828;2022-11-15T06:48:50;99024.97;;;4.61;100.00
51239;BME280;38154;47.548;18.828;2022-11-15T06:51:16;99025.06;;;4.64;100.00
51239;BME280;38154;47.548;18.828;2022-11-15T06:53:42;99028.22;;;4.56;100.00
51239;BME280;38154;47.548;18.828;2022-11-15T06:56:08;99022.25;;;4.57;100.00
51239;BME280;38154;47.548;18.828;2022-11-15T06:58:34;99022.34;;;4.60;100.00
51239;BME280;38154;47.548;18.828;2022-11-15T07:01:05;99007.78;;;4.63;100.00
51239;BME280;38154;47.548;18.828;2022-11-15T07:03:33;99000.19;;;4.68;100.00
51239;BME280;38154;47.548;18.828;2022-11-15T07:05:59;99003.09;;;4.80;100.00
51239;BME280;38154;47.548;18.828;2022-11-15T07:08:27;98984.41;;;4.89;100.00
51239;BME280;38154;47.548;18.828;2022-11-15T07:10:54;98995.91;;;5.00;100.00
51239;BME280;38154;47.548;18.828;2022-11-15T07:13:24;98996.03;;;5.05;100.00
51239;BME280;38154;47.548;18.828;2022-11-15T07:15:50;98999.62;;;5.10;100.00
51239;BME280;38154;47.548;18.828;2022-11-15T07:18:16;98997.75;;;5.05;100.00
51239;BME280;38154;47.548;18.828;2022-11-15T07:20:41;98990.91;;;5.07;100.00
51239;BME280;38154;47.548;18.828;2022-11-15T07:23:07;98989.53;;;5.19;100.00
51239;BME280;38154;47.548;18.828;2022-11-15T07:25:33;98993.94;;;5.24;100.00
51239;BME280;38154;47.548;18.828;2022-11-15T07:28:00;98981.91;;;5.26;100.00
51239;BME280;38154;47.548;18.828;2022-11-15T07:30:26;98987.94;;;5.25;100.00
51239;BME280;38154;47.548;18.828;2022-11-15T07:32:57;98984.50;;;5.26;100.00
51239;BME280;38154;47.548;18.828;2022-11-15T07:35:24;99001.59;;;5.20;100.00
51239;BME280;38154;47.548;18.828;2022-11-15T07:37:53;98988.59;;;5.17;100.00
51239;BME280;38154;47.548;18.828;2022-11-15T07:40:19;98987.00;;;5.23;100.00
51239;BME280;38154;47.548;18.828;2022-11-15T07:42:45;98998.97;;;5.19;100.00
51239;BME280;38154;47.548;18.828;2022-11-15T07:45:24;98991.31;;;5.22;100.00
51239;BME280;38154;47.548;18.828;2022-11-15T07:47:54;98991.25;;;5.20;100.00
51239;BME280;38154;47.548;18.828;2022-11-15T07:50:22;98993.53;;;5.42;100.00
51239;BME280;38154;47.548;18.828;2022-11-15T07:52:54;98988.41;;;5.43;100.00
51239;BME280;38154;47.548;18.828;2022-11-15T07:55:19;98985.88;;;5.45;100.00
51239;BME280;38154;47.548;18.828;2022-11-15T07:57:45;98990.50;;;5.60;100.00
51239;BME280;38154;47.548;18.828;2022-11-15T08:00:12;99000.91;;;5.61;100.00
51239;BME280;38154;47.548;18.828;2022-11-15T08:02:38;98989.69;;;5.61;100.00
51239;BME280;38154;47.548;18.828;2022-11-15T08:05:04;98991.38;;;5.58;100.00
51239;BME280;38154;47.548;18.828;2022-11-15T08:07:30;98994.94;;;5.64;100.00
51239;BME280;38154;47.548;18.828;2022-11-15T08:09:57;98997.00;;;5.77;100.00
51239;BME280;38154;47.548;18.828;2022-11-15T08:12:23;98989.41;;;5.85;100.00
51239;BME280;38154;47.548;18.828;2022-11-15T08:14:49;98990.59;;;5.98;100.00
51239;BME280;38154;47.548;18.828;2022-11-15T08:17:15;98986.28;;;6.36;100.00
51239;BME280;38154;47.548;18.828;2022-11-15T08:19:41;98971.34;;;6.65;100.00
51239;BME280;38154;47.548;18.828;2022-11-15T08:22:07;98969.75;;;6.72;100.00
51239;BME280;38154;47.548;18.828;2022-11-15T08:24:33;98971.44;;;6.72;100.00
51239;BME280;38154;47.548;18.828;2022-11-15T08:26:59;98964.31;;;6.60;100.00
51239;BME280;38154;47.548;18.828;2022-11-15T08:29:25;98949.03;;;6.72;100.00
51239;BME280;38154;47.548;18.828;2022-11-15T08:31:54;98968.84;;;6.72;100.00
51239;BME280;38154;47.548;18.828;2022-11-15T08:34:21;98958.19;;;6.56;100.00
51239;BME280;38154;47.548;18.828;2022-11-15T08:36:47;98960.75;;;6.55;100.00
51239;BME280;38154;47.548;18.828;2022-11-15T08:39:13;98955.66;;;6.59;100.00
51239;BME280;38154;47.548;18.828;2022-11-15T08:41:39;98946.44;;;6.72;100.00
51239;BME280;38154;47.548;18.828;2022-11-15T08:44:05;98951.84;;;6.84;100.00
51239;BME280;38154;47.548;18.828;2022-11-15T08:46:31;98940.09;;;7.03;100.00
51239;BME280;38154;47.548;18.828;2022-11-15T08:48:57;98937.81;;;7.22;100.00
51239;BME280;38154;47.548;18.828;2022-11-15T08:51:22;98929.22;;;7.24;100.00
51239;BME280;38154;47.548;18.828;2022-11-15T08:53:48;98924.09;;;7.28;100.00
51239;BME280;38154;47.548;18.828;2022-11-15T08:56:14;98918.94;;;7.29;100.00
51239;BME280;38154;47.548;18.828;2022-11-15T08:58:41;98918.97;;;7.32;100.00
51239;BME280;38154;47.548;18.828;2022-11-15T09:01:15;98917.22;;;7.30;100.00
51239;BME280;38154;47.548;18.828;2022-11-15T09:03:42;98923.81;;;7.11;100.00
51239;BME280;38154;47.548;18.828;2022-11-15T09:06:07;98921.88;;;7.00;100.00
51239;BME280;38154;47.548;18.828;2022-11-15T09:08:34;98918.44;;;7.01;100.00
51239;BME280;38154;47.548;18.828;2022-11-15T09:11:05;98917.50;;;6.96;100.00
51239;BME280;38154;47.548;18.828;2022-11-15T09:13:32;98928.00;;;7.04;100.00
51239;BME280;38154;47.548;18.828;2022-11-15T09:15:59;98929.78;;;7.06;100.00
51239;BME280;38154;47.548;18.828;2022-11-15T09:18:26;98944.81;;;7.26;100.00
51239;BME280;38154;47.548;18.828;2022-11-15T09:20:57;98931.53;;;7.59;100.00
51239;BME280;38154;47.548;18.828;2022-11-15T09:23:24;98930.25;;;7.91;100.00
51239;BME280;38154;47.548;18.828;2022-11-15T09:25:50;98934.81;;;8.07;100.00
51239;BME280;38154;47.548;18.828;2022-11-15T09:28:16;98921.94;;;8.13;100.00
51239;BME280;38154;47.548;18.828;2022-11-15T09:30:42;98929.88;;;8.26;100.00
51239;BME280;38154;47.548;18.828;2022-11-15T09:33:09;98923.94;;;8.38;100.00
51239;BME280;38154;47.548;18.828;2022-11-15T09:35:36;98927.59;;;8.49;100.00
51239;BME280;38154;47.548;18.828;2022-11-15T09:38:02;98932.84;;;8.53;100.00
51239;BME280;38154;47.548;18.828;2022-11-15T09:40:30;98929.44;;;8.59;100.00
51239;BME280;38154;47.548;18.828;2022-11-15T09:43:27;98933.53;;;8.40;100.00
51239;BME280;38154;47.548;18.828;2022-11-15T09:46:21;98921.38;;;8.39;100.00
51239;BME280;38154;47.548;18.828;2022-11-15T09:48:53;98923.03;;;8.34;100.00
51239;BME280;38154;47.548;18.828;2022-11-15T09:51:26;98922.59;;;8.66;100.00
51239;BME280;38154;47.548;18.828;2022-11-15T09:56:43;98911.22;;;8.53;100.00
51239;BME280;38154;47.548;18.828;2022-11-15T10:02:54;98902.75;;;8.74;100.00
51239;BME280;38154;47.548;18.828;2022-11-15T10:05:24;98901.00;;;8.71;100.00
51239;BME280;38154;47.548;18.828;2022-11-15T10:08:35;98890.59;;;8.73;100.00
51239;BME280;38154;47.548;18.828;2022-11-15T10:10:47;98886.38;;;8.83;100.00
51239;BME280;38154;47.548;18.828;2022-11-15T10:13:25;98886.38;;;8.84;100.00
51239;BME280;38154;47.548;18.828;2022-11-15T10:15:56;98872.50;;;8.82;100.00
51239;BME280;38154;47.548;18.828;2022-11-15T10:18:52;98862.97;;;8.83;100.00
51239;BME280;38154;47.548;18.828;2022-11-15T10:21:24;98869.00;;;8.79;100.00
51239;BME280;38154;47.548;18.828;2022-11-15T10:23:52;98866.44;;;8.80;100.00
51239;BME280;38154;47.548;18.828;2022-11-15T10:26:18;98866.53;;;8.93;100.00
51239;BME280;38154;47.548;18.828;2022-11-15T10:28:44;98862.16;;;8.85;100.00
51239;BME280;38154;47.548;18.828;2022-11-15T10:31:25;98862.22;;;8.95;100.00
51239;BME280;38154;47.548;18.828;2022-11-15T10:37:00;98851.97;;;9.10;100.00
51239;BME280;38154;47.548;18.828;2022-11-15T10:39:29;98837.22;;;9.09;100.00
51239;BME280;38154;47.548;18.828;2022-11-15T10:41:55;98836.38;;;9.10;100.00
51239;BME280;38154;47.548;18.828;2022-11-15T10:44:26;98845.84;;;9.08;100.00
51239;BME280;38154;47.548;18.828;2022-11-15T10:49:25;98843.16;;;8.94;100.00
51239;BME280;38154;47.548;18.828;2022-11-15T10:52:16;98842.16;;;8.81;100.00
51239;BME280;38154;47.548;18.828;2022-11-15T10:55:01;98839.47;;;8.70;100.00
51239;BME280;38154;47.548;18.828;2022-11-15T10:57:38;98832.56;;;8.74;100.00
51239;BME280;38154;47.548;18.828;2022-11-15T11:00:40;98834.34;;;8.80;100.00
51239;BME280;38154;47.548;18.828;2022-11-15T11:03:43;98830.06;;;8.86;100.00
51239;BME280;38154;47.548;18.828;2022-11-15T11:06:16;98812.91;;;9.05;100.00
51239;BME280;38154;47.548;18.828;2022-11-15T11:09:02;98808.69;;;9.24;100.00
51239;BME280;38154;47.548;18.828;2022-11-15T11:11:46;98801.91;;;9.42;100.00
51239;BME280;38154;47.548;18.828;2022-11-15T11:14:22;98802.81;;;9.55;100.00
51239;BME280;38154;47.548;18.828;2022-11-15T11:16:57;98801.94;;;9.50;100.00
51239;BME280;38154;47.548;18.828;2022-11-15T11:19:49;98793.16;;;9.32;100.00
51239;BME280;38154;47.548;18.828;2022-11-15T11:31:10;98795.41;;;8.86;100.00
51239;BME280;38154;47.548;18.828;2022-11-15T11:33:59;98789.34;;;8.87;100.00
51239;BME280;38154;47.548;18.828;2022-11-15T11:36:39;98790.19;;;8.84;100.00
51239;BME280;38154;47.548;18.828;2022-11-15T11:44:49;98768.50;;;8.82;100.00
51239;BME280;38154;47.548;18.828;2022-11-15T11:47:24;98772.00;;;8.86;100.00
51239;BME280;38154;47.548;18.828;2022-11-15T11:50:20;98770.28;;;8.88;100.00
51239;BME280;38154;47.548;18.828;2022-11-15T11:53:13;98761.53;;;8.75;100.00
51239;BME280;38154;47.548;18.828;2022-11-15T11:55:47;98757.97;;;8.65;100.00
51239;BME280;38154;47.548;18.828;2022-11-15T11:58:34;98758.69;;;8.50;100.00
51239;BME280;38154;47.548;18.828;2022-11-15T12:03:55;98749.72;;;8.22;100.00
51239;BME280;38154;47.548;18.828;2022-11-15T12:06:42;98749.72;;;8.21;100.00
51239;BME280;38154;47.548;18.828;2022-11-15T12:12:25;98739.12;;;8.02;100.00
51239;BME280;38154;47.548;18.828;2022-11-15T12:15:04;98730.34;;;7.91;100.00
51239;BME280;38154;47.548;18.828;2022-11-15T12:17:36;98731.13;;;7.82;100.00
51239;BME280;38154;47.548;18.828;2022-11-15T12:20:06;98735.25;;;7.65;100.00
51239;BME280;38154;47.548;18.828;2022-11-15T12:25:46;98729.81;;;7.46;100.00
51239;BME280;38154;47.548;18.828;2022-11-15T12:28:20;98718.63;;;7.50;100.00
51239;BME280;38154;47.548;18.828;2022-11-15T12:30:54;98716.09;;;7.55;100.00
51239;BME280;38154;47.548;18.828;2022-11-15T12:33:37;98709.12;;;7.52;100.00
51239;BME280;38154;47.548;18.828;2022-11-15T12:36:30;98703.28;;;7.70;100.00
51239;BME280;38154;47.548;18.828;2022-11-15T12:39:00;98696.63;;;7.94;100.00
51239;BME280;38154;47.548;18.828;2022-11-15T12:43:53;98707.69;;;7.77;100.00
51239;BME280;38154;47.548;18.828;2022-11-15T12:46:22;98689.50;;;7.73;100.00
51239;BME280;38154;47.548;18.828;2022-11-15T12:48:54;98685.25;;;7.79;100.00
51239;BME280;38154;47.548;18.828;2022-11-15T12:51:23;98689.75;;;7.99;100.00
51239;BME280;38154;47.548;18.828;2022-11-15T13:02:47;98683.00;;;8.15;100.00
51239;BME280;38154;47.548;18.828;2022-11-15T13:22:59;98678.38;;;7.85;100.00
51239;BME280;38154;47.548;18.828;2022-11-15T13:25:48;98681.75;;;7.79;100.00
51239;BME280;38154;47.548;18.828;2022-11-15T13:30:56;98669.59;;;7.73;100.00
51239;BME280;38154;47.548;18.828;2022-11-15T13:33:25;98661.81;;;7.75;100.00
51239;BME280;38154;47.548;18.828;2022-11-15T13:35:56;98651.63;;;7.93;100.00
51239;BME280;38154;47.548;18.828;2022-11-15T13:38:28;98650.19;;;8.25;100.00
51239;BME280;38154;47.548;18.828;2022-11-15T13:40:56;98656.31;;;8.33;100.00
51239;BME280;38154;47.548;18.828;2022-11-15T13:46:19;98659.69;;;8.23;100.00
51239;BME280;38154;47.548;18.828;2022-11-15T13:48:51;98652.78;;;8.25;100.00
51239;BME280;38154;47.548;18.828;2022-11-15T13:53:56;98621.63;;;8.26;100.00
51239;BME280;38154;47.548;18.828;2022-11-15T13:56:25;98616.28;;;8.09;100.00
51239;BME280;38154;47.548;18.828;2022-11-15T13:58:52;98627.44;;;7.97;100.00
51239;BME280;38154;47.548;18.828;2022-11-15T14:01:21;98610.09;;;7.93;100.00
51239;BME280;38154;47.548;18.828;2022-11-15T14:03:59;98610.94;;;7.94;100.00
51239;BME280;38154;47.548;18.828;2022-11-15T14:06:27;98604.03;;;7.96;100.00
51239;BME280;38154;47.548;18.828;2022-11-15T14:11:35;98595.38;;;7.95;100.00
51239;BME280;38154;47.548;18.828;2022-11-15T14:16:40;98593.84;;;8.14;100.00
51239;BME280;38154;47.548;18.828;2022-11-15T14:19:10;98600.66;;;8.02;100.00
51239;BME280;38154;47.548;18.828;2022-11-15T14:21:36;98601.47;;;7.94;100.00
51239;BME280;38154;47.548;18.828;2022-11-15T14:24:20;98611.81;;;7.93;100.00
51239;BME280;38154;47.548;18.828;2022-11-15T14:26:46;98614.19;;;7.70;100.00
51239;BME280;38154;47.548;18.828;2022-11-15T14:29:26;98610.50;;;7.48;100.00
51239;BME280;38154;47.548;18.828;2022-11-15T14:31:54;98603.47;;;7.37;100.00
51239;BME280;38154;47.548;18.828;2022-11-15T14:34:32;98603.47;;;7.37;100.00
51239;BME280;38154;47.548;18.828;2022-11-15T14:36:57;98601.66;;;7.30;100.00
51239;BME280;38154;47.548;18.828;2022-11-15T14:39:23;98595.47;;;7.20;100.00
51239;BME280;38154;47.548;18.828;2022-11-15T14:41:50;98593.66;;;7.13;100.00
51239;BME280;38154;47.548;18.828;2022-11-15T14:44:16;98591.16;;;7.19;100.00
51239;BME280;38154;47.548;18.828;2022-11-15T14:46:44;98596.34;;;7.19;100.00
51239;BME280;38154;47.548;18.828;2022-11-15T14:49:09;98591.13;;;7.16;100.00
51239;BME280;38154;47.548;18.828;2022-11-15T14:51:35;98591.19;;;7.21;100.00